Time;durP1;ratioP1;P1;durP2;ratioP2;P2;SDS_P1;SDS_P2;PMS_P1;PMS_P2;Temp;Humidity;BMP_temperature;BMP_pressure;BME280_temperature;BME280_humidity;BME280_pressure;Samples;Min_cycle;Max_cycle;Signal;HPM_P1;HPM_P2
2021/12/31 00:01:44;;;;;;;6.50;2.45;;;14.80;99.90;;;;;;5079138;28;20031;-82
2021/12/31 00:04:11;;;;;;;6.82;2.65;;;14.80;99.90;;;;;;5082002;28;20629;-82
2021/12/31 00:06:36;;;;;;;11.15;2.80;;;14.80;99.90;;;;;;5082037;28;20096;-81
2021/12/31 00:09:04;;;;;;;7.95;2.63;;;14.80;99.90;;;;;;5079422;28;20102;-82
2021/12/31 00:11:30;;;;;;;9.65;3.10;;;14.90;99.90;;;;;;5079963;28;20060;-82
2021/12/31 00:13:55;;;;;;;9.20;2.92;;;14.80;99.90;;;;;;5078337;28;20065;-82
2021/12/31 00:16:21;;;;;;;5.18;2.63;;;14.90;99.90;;;;;;5083135;28;20119;-82
2021/12/31 00:18:46;;;;;;;8.63;2.70;;;14.90;99.90;;;;;;5077207;28;20028;-83
2021/12/31 00:21:12;;;;;;;8.55;2.50;;;14.90;99.90;;;;;;5079182;28;20021;-82
2021/12/31 00:23:45;;;;;;;6.22;2.78;;;14.80;99.90;;;;;;5075658;28;20035;-84
2021/12/31 00:26:12;;;;;;;9.27;2.42;;;14.90;99.90;;;;;;5079680;28;20029;-85
2021/12/31 00:28:39;;;;;;;5.93;2.50;;;14.90;99.90;;;;;;5078540;28;20043;-84
2021/12/31 00:31:04;;;;;;;4.05;2.20;;;14.80;99.90;;;;;;5078891;28;20020;-85
2021/12/31 00:33:31;;;;;;;4.68;2.50;;;14.80;99.90;;;;;;5083503;28;20032;-84
2021/12/31 00:35:56;;;;;;;5.85;1.90;;;14.90;99.90;;;;;;5082599;28;20020;-85
2021/12/31 00:38:22;;;;;;;7.30;2.17;;;14.90;99.90;;;;;;5093606;28;20032;-84
2021/12/31 00:40:48;;;;;;;4.40;2.33;;;14.90;99.90;;;;;;5084322;28;20821;-84
2021/12/31 00:43:15;;;;;;;6.20;2.35;;;14.80;99.90;;;;;;5083367;28;20091;-84
2021/12/31 00:45:41;;;;;;;8.95;2.33;;;14.90;99.90;;;;;;5082832;28;20074;-84
2021/12/31 00:48:09;;;;;;;6.88;2.67;;;14.90;99.90;;;;;;5085432;28;20024;-85
2021/12/31 00:50:35;;;;;;;7.22;2.58;;;14.80;99.90;;;;;;5081821;28;20059;-84
2021/12/31 00:53:03;;;;;;;5.57;2.40;;;14.90;99.90;;;;;;5084335;28;20084;-85
2021/12/31 00:55:29;;;;;;;8.35;2.72;;;14.90;99.90;;;;;;5080648;28;20064;-84
2021/12/31 00:57:56;;;;;;;10.07;2.65;;;14.90;99.90;;;;;;5090867;28;20465;-85
2021/12/31 01:00:23;;;;;;;8.32;2.70;;;14.90;99.90;;;;;;5083627;28;20028;-85
2021/12/31 01:02:51;;;;;;;6.40;2.40;;;14.80;99.90;;;;;;5084393;28;20166;-83
2021/12/31 01:05:17;;;;;;;5.85;2.47;;;14.90;99.90;;;;;;5081050;28;20043;-83
2021/12/31 01:07:43;;;;;;;4.75;2.10;;;15.00;99.90;;;;;;5083998;28;20028;-84
2021/12/31 01:10:12;;;;;;;5.47;2.47;;;15.00;99.90;;;;;;5082992;28;20032;-85
2021/12/31 01:12:38;;;;;;;6.43;2.40;;;14.90;99.90;;;;;;5082752;28;20025;-85
2021/12/31 01:15:08;;;;;;;6.82;2.42;;;14.90;99.90;;;;;;5090220;28;20036;-84
2021/12/31 01:20:04;;;;;;;5.18;2.20;;;15.00;99.90;;;;;;5080309;28;20028;-83
2021/12/31 01:22:31;;;;;;;4.35;2.03;;;15.00;99.90;;;;;;5082964;28;20127;-79
2021/12/31 01:24:58;;;;;;;4.88;2.47;;;15.00;99.90;;;;;;5082373;28;20024;-82
2021/12/31 01:27:24;;;;;;;7.97;5.05;;;15.00;99.90;;;;;;5081582;28;20025;-81
2021/12/31 01:29:50;;;;;;;8.55;3.92;;;15.00;99.90;;;;;;5081253;28;20046;-80
2021/12/31 01:32:15;;;;;;;12.32;8.32;;;14.90;99.90;;;;;;5077496;28;20380;-84
2021/12/31 01:34:41;;;;;;;6.22;2.72;;;14.90;99.90;;;;;;5081304;28;20036;-84
2021/12/31 01:37:10;;;;;;;10.07;3.85;;;15.00;99.90;;;;;;5080765;28;20024;-81
2021/12/31 01:39:36;;;;;;;7.03;2.40;;;15.00;99.90;;;;;;5080979;28;20027;-83
2021/12/31 01:42:06;;;;;;;7.22;2.65;;;15.00;99.90;;;;;;5082568;28;20454;-84
2021/12/31 01:44:44;;;;;;;4.35;2.38;;;15.00;99.90;;;;;;5084552;28;20024;-84
2021/12/31 01:47:15;;;;;;;3.65;2.13;;;15.00;99.90;;;;;;5084055;28;20032;-82
2021/12/31 01:49:53;;;;;;;5.72;2.88;;;15.00;99.90;;;;;;5080075;28;20028;-82
2021/12/31 01:52:19;;;;;;;12.68;9.27;;;15.00;99.90;;;;;;5086890;28;20170;-83
2021/12/31 01:54:46;;;;;;;8.35;3.55;;;15.00;99.90;;;;;;5081052;28;20107;-83
2021/12/31 01:57:11;;;;;;;7.35;2.58;;;15.00;99.90;;;;;;5080651;28;20063;-83
2021/12/31 01:59:38;;;;;;;5.97;2.28;;;15.00;99.90;;;;;;5085960;28;20059;-84
2021/12/31 02:02:05;;;;;;;8.88;3.25;;;15.00;99.90;;;;;;5083349;28;20319;-84
2021/12/31 02:04:31;;;;;;;6.50;2.60;;;15.00;99.90;;;;;;5082574;28;20613;-83
2021/12/31 02:06:58;;;;;;;7.30;2.63;;;15.00;99.90;;;;;;5086082;28;20027;-80
2021/12/31 02:09:24;;;;;;;5.63;2.10;;;15.00;99.90;;;;;;5080915;28;20119;-84
2021/12/31 02:11:53;;;;;;;7.47;2.35;;;15.00;99.90;;;;;;5084957;28;20190;-82
2021/12/31 02:14:21;;;;;;;4.57;2.28;;;14.90;99.90;;;;;;5080740;28;20052;-77
2021/12/31 02:16:46;;;;;;;8.18;3.38;;;14.90;99.90;;;;;;5098085;28;20052;-76
2021/12/31 02:19:14;;;;;;;5.53;2.65;;;15.00;99.90;;;;;;5083440;28;20059;-83
2021/12/31 02:21:44;;;;;;;6.57;2.72;;;14.90;99.90;;;;;;5081883;28;20028;-84
2021/12/31 02:24:10;;;;;;;4.47;2.80;;;14.90;99.90;;;;;;5080859;28;21052;-84
2021/12/31 02:26:36;;;;;;;5.82;2.70;;;14.90;99.90;;;;;;5080824;28;20044;-84
2021/12/31 02:29:02;;;;;;;10.10;3.47;;;14.90;99.90;;;;;;5083244;28;20067;-84
2021/12/31 02:31:28;;;;;;;7.15;2.83;;;14.90;99.90;;;;;;5085032;28;20024;-84
2021/12/31 02:33:53;;;;;;;10.52;4.75;;;14.90;99.90;;;;;;5080070;28;20032;-83
2021/12/31 02:36:19;;;;;;;10.98;3.20;;;14.90;99.90;;;;;;5081917;28;20024;-77
2021/12/31 02:38:45;;;;;;;9.85;2.90;;;15.00;99.90;;;;;;5081133;28;20033;-84
2021/12/31 02:41:10;;;;;;;7.20;5.35;;;14.90;99.90;;;;;;5081083;28;20027;-79
2021/12/31 02:43:37;;;;;;;6.22;2.60;;;15.00;99.90;;;;;;5078999;28;20109;-84
2021/12/31 02:46:03;;;;;;;7.40;2.92;;;15.00;99.90;;;;;;5085463;28;20020;-83
2021/12/31 02:48:28;;;;;;;6.68;2.78;;;15.00;99.90;;;;;;5082768;28;20529;-84
2021/12/31 02:50:57;;;;;;;7.35;2.28;;;15.00;99.90;;;;;;5076035;28;20032;-83
2021/12/31 02:53:32;;;;;;;6.28;2.75;;;15.00;99.90;;;;;;5082062;28;20180;-80
2021/12/31 02:56:01;;;;;;;5.20;2.25;;;15.00;99.90;;;;;;5084318;28;20024;-84
2021/12/31 02:58:27;;;;;;;6.55;2.88;;;15.00;99.90;;;;;;5084555;28;20016;-84
2021/12/31 03:00:53;;;;;;;9.10;2.63;;;15.00;99.90;;;;;;5083888;28;20032;-85
2021/12/31 03:03:20;;;;;;;7.13;2.72;;;15.00;99.90;;;;;;5081714;28;20024;-84
2021/12/31 03:05:46;;;;;;;5.68;2.80;;;14.90;99.90;;;;;;5086786;28;20020;-77
2021/12/31 03:08:14;;;;;;;8.45;3.17;;;14.80;99.90;;;;;;5082780;28;20099;-84
2021/12/31 03:10:41;;;;;;;14.70;5.13;;;14.80;99.90;;;;;;5088386;28;20037;-76
2021/12/31 03:13:08;;;;;;;9.10;3.13;;;14.80;99.90;;;;;;5086275;28;20036;-76
2021/12/31 03:15:36;;;;;;;7.90;2.78;;;14.80;99.90;;;;;;5079612;28;20020;-77
2021/12/31 03:18:03;;;;;;;7.13;2.55;;;14.80;99.90;;;;;;5078244;28;20440;-78
2021/12/31 03:20:41;;;;;;;9.68;2.83;;;14.80;99.90;;;;;;5078644;28;20039;-84
2021/12/31 03:23:06;;;;;;;7.68;2.70;;;14.70;99.90;;;;;;5081361;28;20128;-84
2021/12/31 03:25:32;;;;;;;8.60;3.00;;;14.80;99.90;;;;;;5081365;28;20511;-85
2021/12/31 03:27:58;;;;;;;9.25;2.63;;;14.80;99.90;;;;;;5081593;28;20431;-84
2021/12/31 03:30:24;;;;;;;9.25;3.00;;;14.70;99.90;;;;;;5081560;28;20388;-85
2021/12/31 03:32:49;;;;;;;7.97;3.05;;;14.70;99.90;;;;;;5081676;28;20028;-83
2021/12/31 03:35:15;;;;;;;9.18;3.35;;;14.60;99.90;;;;;;5084011;28;20036;-84
2021/12/31 03:37:41;;;;;;;8.73;2.90;;;14.60;99.90;;;;;;5077341;28;20017;-85
2021/12/31 03:40:07;;;;;;;10.00;3.30;;;14.60;99.90;;;;;;5084641;28;20472;-81
2021/12/31 03:42:33;;;;;;;7.55;3.17;;;14.60;99.90;;;;;;5078447;28;20020;-83
2021/12/31 03:44:59;;;;;;;8.68;3.13;;;14.50;99.90;;;;;;5082935;28;20158;-83
2021/12/31 03:47:24;;;;;;;11.48;3.38;;;14.60;99.90;;;;;;5078174;28;20085;-83
2021/12/31 03:49:50;;;;;;;9.40;3.03;;;14.50;99.90;;;;;;5082109;28;20523;-83
2021/12/31 03:52:16;;;;;;;8.70;3.03;;;14.50;99.90;;;;;;5079689;28;20115;-84
2021/12/31 03:54:41;;;;;;;10.02;3.00;;;14.50;99.90;;;;;;5081756;28;20085;-83
2021/12/31 03:57:07;;;;;;;7.90;2.55;;;14.40;99.90;;;;;;5081280;28;20115;-83
2021/12/31 03:59:32;;;;;;;5.95;2.70;;;14.40;99.90;;;;;;5080121;28;20118;-82
2021/12/31 04:01:58;;;;;;;8.40;2.72;;;14.40;99.90;;;;;;5081979;28;20512;-80
2021/12/31 04:04:24;;;;;;;6.80;2.63;;;14.30;99.90;;;;;;5075084;28;20040;-84
2021/12/31 04:06:50;;;;;;;5.32;2.63;;;14.30;99.90;;;;;;5080722;28;20016;-84
2021/12/31 04:09:15;;;;;;;6.65;2.83;;;14.20;99.90;;;;;;5076375;28;20036;-84
2021/12/31 04:11:41;;;;;;;8.10;2.85;;;14.20;99.90;;;;;;5080823;28;20033;-83
2021/12/31 04:14:07;;;;;;;7.40;2.47;;;14.20;99.90;;;;;;5079321;28;20031;-83
2021/12/31 04:16:32;;;;;;;7.82;3.47;;;14.30;99.90;;;;;;5079825;28;20461;-83
2021/12/31 04:18:58;;;;;;;9.40;2.97;;;14.20;99.90;;;;;;5078868;28;20024;-84
2021/12/31 04:21:24;;;;;;;8.43;2.83;;;14.20;99.90;;;;;;5078826;28;20027;-79
2021/12/31 04:24:06;;;;;;;6.35;2.97;;;14.30;99.90;;;;;;5082203;28;20032;-84
2021/12/31 04:26:32;;;;;;;6.90;2.95;;;14.30;99.90;;;;;;5082127;28;20024;-83
2021/12/31 04:28:57;;;;;;;6.78;2.53;;;14.30;99.90;;;;;;5080618;28;20028;-84
2021/12/31 04:31:23;;;;;;;11.00;2.83;;;14.30;99.90;;;;;;5076425;28;20144;-83
2021/12/31 04:33:49;;;;;;;6.93;2.75;;;14.40;99.90;;;;;;5077677;28;20032;-83
2021/12/31 04:36:15;;;;;;;7.53;2.63;;;14.40;99.90;;;;;;5084363;28;20031;-84
2021/12/31 04:38:41;;;;;;;6.22;2.70;;;14.30;99.90;;;;;;5082686;28;20099;-84
2021/12/31 04:41:06;;;;;;;7.20;2.90;;;14.30;99.90;;;;;;5083747;28;20380;-82
2021/12/31 04:43:32;;;;;;;8.77;2.50;;;14.30;99.90;;;;;;5083793;28;20106;-83
2021/12/31 04:45:58;;;;;;;8.10;2.40;;;14.40;99.90;;;;;;5081515;28;20024;-84
2021/12/31 04:48:24;;;;;;;5.30;2.38;;;14.40;99.90;;;;;;5080389;28;20483;-82
2021/12/31 04:50:50;;;;;;;6.35;2.80;;;14.40;99.90;;;;;;5082312;28;20028;-83
2021/12/31 04:53:16;;;;;;;5.25;2.15;;;14.40;99.90;;;;;;5084777;28;20028;-78
2021/12/31 04:55:42;;;;;;;6.60;2.25;;;14.40;99.90;;;;;;5083014;28;20027;-84
2021/12/31 04:58:08;;;;;;;6.30;2.60;;;14.40;99.90;;;;;;5084623;28;20096;-83
2021/12/31 05:00:33;;;;;;;6.60;2.40;;;14.40;99.90;;;;;;5085660;28;20425;-84
2021/12/31 05:03:06;;;;;;;9.55;2.60;;;14.40;99.90;;;;;;5082701;28;20365;-84
2021/12/31 05:05:32;;;;;;;6.15;2.20;;;14.40;99.90;;;;;;5080983;28;20048;-81
2021/12/31 05:07:58;;;;;;;6.90;2.63;;;14.40;99.90;;;;;;5082671;28;20021;-84
2021/12/31 05:10:23;;;;;;;5.90;2.50;;;14.40;99.90;;;;;;5080877;28;20067;-83
2021/12/31 05:12:53;;;;;;;5.50;2.15;;;14.40;99.90;;;;;;5078104;28;20095;-84
2021/12/31 05:15:25;;;;;;;9.43;2.38;;;14.40;99.90;;;;;;5082365;28;20373;-83
2021/12/31 05:17:51;;;;;;;;;;;14.30;99.90;;;;;;5085876;28;20013;-81
2021/12/31 05:20:17;;;;;;;4.95;2.20;;;14.40;99.90;;;;;;5086909;28;20330;-83
2021/12/31 05:22:42;;;;;;;6.35;2.38;;;14.30;99.90;;;;;;5083606;28;20067;-83
2021/12/31 05:25:09;;;;;;;5.88;2.05;;;14.30;99.90;;;;;;5085673;28;20080;-84
2021/12/31 05:27:35;;;;;;;4.85;2.20;;;14.20;99.90;;;;;;5082875;28;20028;-84
2021/12/31 05:30:00;;;;;;;5.97;2.50;;;14.20;99.90;;;;;;5081729;28;20032;-84
2021/12/31 05:32:26;;;;;;;8.75;2.33;;;14.20;99.90;;;;;;5086069;28;20545;-84
2021/12/31 05:34:52;;;;;;;7.10;2.50;;;14.20;99.90;;;;;;5090579;28;20032;-84
2021/12/31 05:37:17;;;;;;;6.43;3.20;;;14.10;99.90;;;;;;5086064;28;20028;-84
2021/12/31 05:39:44;;;;;;;4.25;2.28;;;14.00;99.90;;;;;;5084341;28;20113;-85
2021/12/31 05:42:11;;;;;;;6.38;2.33;;;14.00;99.90;;;;;;5085933;28;20476;-85
2021/12/31 05:44:36;;;;;;;5.20;2.20;;;14.00;99.90;;;;;;5084833;28;20583;-84
2021/12/31 05:47:02;;;;;;;6.63;2.40;;;13.90;99.90;;;;;;5087073;28;20091;-85
2021/12/31 05:49:29;;;;;;;5.07;2.08;;;13.90;99.90;;;;;;5079873;28;20127;-84
2021/12/31 05:51:54;;;;;;;4.57;2.38;;;13.90;99.90;;;;;;5084274;28;20381;-84
2021/12/31 05:54:20;;;;;;;4.47;2.30;;;13.90;99.90;;;;;;5093828;28;20016;-84
2021/12/31 05:56:46;;;;;;;4.93;2.17;;;13.90;99.90;;;;;;5095389;28;20411;-84
2021/12/31 05:59:11;;;;;;;7.90;2.20;;;13.90;99.90;;;;;;5082020;28;20435;-81
2021/12/31 06:01:37;;;;;;;3.80;2.67;;;13.80;99.90;;;;;;5084690;28;20075;-84
2021/12/31 06:04:03;;;;;;;8.38;2.88;;;13.80;99.90;;;;;;5082890;28;20033;-82
2021/12/31 06:06:28;;;;;;;7.85;3.15;;;13.70;99.90;;;;;;5084438;28;20039;-83
2021/12/31 06:08:54;;;;;;;4.22;2.35;;;13.70;99.90;;;;;;5081755;28;20025;-83
2021/12/31 06:11:19;;;;;;;4.25;2.55;;;13.70;99.90;;;;;;5085613;28;20491;-84
2021/12/31 06:13:49;;;;;;;4.40;2.35;;;13.70;99.90;;;;;;5089478;28;20012;-84
2021/12/31 06:16:15;;;;;;;5.00;2.47;;;13.70;99.90;;;;;;5083982;28;20020;-83
2021/12/31 06:18:41;;;;;;;6.47;2.40;;;13.70;99.90;;;;;;5083288;28;20024;-84
2021/12/31 06:21:07;;;;;;;4.22;2.42;;;13.70;99.90;;;;;;5085840;28;20047;-81
2021/12/31 06:23:33;;;;;;;6.03;2.50;;;13.70;99.90;;;;;;5083881;28;20024;-84
2021/12/31 06:25:59;;;;;;;4.82;2.50;;;13.60;99.90;;;;;;5080806;28;20523;-84
2021/12/31 06:28:24;;;;;;;5.60;2.65;;;13.60;99.90;;;;;;5080164;28;20488;-84
2021/12/31 06:30:50;;;;;;;5.55;2.50;;;13.60;99.90;;;;;;5085468;28;20024;-85
2021/12/31 06:33:16;;;;;;;4.03;2.13;;;13.50;99.90;;;;;;5080440;28;20020;-84
2021/12/31 06:35:41;;;;;;;8.75;2.42;;;13.50;99.90;;;;;;5081266;28;20054;-84
2021/12/31 06:38:07;;;;;;;6.55;2.67;;;13.50;99.90;;;;;;5085389;28;20035;-84
2021/12/31 06:40:35;;;;;;;6.70;2.65;;;13.60;99.90;;;;;;5083937;28;20050;-84
2021/12/31 06:43:00;;;;;;;5.60;2.17;;;13.50;99.90;;;;;;5082660;28;20533;-82
2021/12/31 06:45:26;;;;;;;5.43;2.40;;;13.50;99.90;;;;;;5082376;28;20070;-84
2021/12/31 06:47:52;;;;;;;6.25;2.15;;;13.60;99.90;;;;;;5077946;28;20021;-81
2021/12/31 06:50:18;;;;;;;6.00;2.45;;;13.60;99.90;;;;;;5084329;28;20046;-84
2021/12/31 06:52:45;;;;;;;7.10;2.78;;;13.50;99.90;;;;;;5086546;28;20027;-85
2021/12/31 06:55:11;;;;;;;4.22;2.08;;;13.60;99.90;;;;;;5081440;28;20068;-85
2021/12/31 06:57:37;;;;;;;4.53;3.00;;;13.70;99.90;;;;;;5084092;28;20379;-83
2021/12/31 07:00:07;;;;;;;4.82;2.22;;;13.60;99.90;;;;;;5079557;28;20032;-84
2021/12/31 07:02:33;;;;;;;5.20;2.80;;;13.50;99.90;;;;;;5084442;28;20468;-84
2021/12/31 07:04:59;;;;;;;8.30;2.55;;;13.60;99.90;;;;;;5079627;28;20032;-84
2021/12/31 07:07:24;;;;;;;8.48;3.10;;;13.50;99.90;;;;;;5083988;28;20043;-86
2021/12/31 07:09:50;;;;;;;4.38;2.38;;;13.50;99.90;;;;;;5081960;28;20032;-86
2021/12/31 07:12:16;;;;;;;6.47;2.80;;;13.50;99.90;;;;;;5084289;28;20052;-81
2021/12/31 07:14:41;;;;;;;7.50;2.75;;;13.50;99.90;;;;;;5082504;28;20048;-85
2021/12/31 07:17:07;;;;;;;5.45;2.60;;;13.50;99.90;;;;;;5085928;28;20110;-84
2021/12/31 07:19:33;;;;;;;5.75;2.53;;;13.40;99.90;;;;;;5081901;28;20578;-83
2021/12/31 07:22:00;;;;;;;5.07;2.85;;;13.40;99.90;;;;;;5078624;28;20053;-84
2021/12/31 07:24:26;;;;;;;6.95;2.97;;;13.40;99.90;;;;;;5083482;28;20507;-84
2021/12/31 07:26:53;;;;;;;3.67;2.55;;;13.30;99.90;;;;;;5085561;28;20388;-85
2021/12/31 07:29:19;;;;;;;9.45;3.08;;;13.30;99.90;;;;;;5084188;28;20032;-84
2021/12/31 07:31:44;;;;;;;5.65;2.78;;;13.30;99.90;;;;;;5079863;28;20038;-85
2021/12/31 07:34:10;;;;;;;6.05;2.80;;;13.40;99.90;;;;;;5081799;28;20040;-84
2021/12/31 07:36:36;;;;;;;7.32;2.88;;;13.30;99.90;;;;;;5083895;28;20099;-84
2021/12/31 07:39:07;;;;;;;6.43;2.85;;;13.30;99.90;;;;;;5083916;28;20103;-84
2021/12/31 07:41:34;;;;;;;7.95;2.63;;;13.30;99.90;;;;;;5081050;28;20028;-79
2021/12/31 07:44:01;;;;;;;3.83;2.40;;;13.40;99.90;;;;;;5080194;28;20115;-83
2021/12/31 07:46:27;;;;;;;5.47;2.33;;;13.40;99.90;;;;;;5080671;28;20036;-85
2021/12/31 07:48:54;;;;;;;4.68;2.28;;;13.50;99.90;;;;;;5080501;28;21064;-85
2021/12/31 07:51:21;;;;;;;3.40;2.33;;;13.40;99.90;;;;;;5078360;28;20032;-84
2021/12/31 07:53:46;;;;;;;6.07;2.63;;;13.40;99.90;;;;;;5081134;28;20028;-85
2021/12/31 07:56:12;;;;;;;3.70;2.55;;;13.30;99.90;;;;;;5085451;28;20031;-84
2021/12/31 07:58:37;;;;;;;5.25;2.55;;;13.30;99.90;;;;;;5081739;28;20028;-84
2021/12/31 08:01:03;;;;;;;8.45;2.85;;;13.30;99.90;;;;;;5073144;28;20059;-85
2021/12/31 08:03:31;;;;;;;4.30;2.35;;;13.40;99.90;;;;;;5085042;28;20031;-85
2021/12/31 08:05:59;;;;;;;6.28;2.78;;;13.30;99.90;;;;;;5084250;28;20536;-85
2021/12/31 08:08:25;;;;;;;3.13;2.55;;;13.20;99.90;;;;;;5089977;28;20020;-84
2021/12/31 08:10:52;;;;;;;8.50;2.65;;;13.30;99.90;;;;;;5080449;28;20038;-83
2021/12/31 08:13:18;;;;;;;6.35;2.80;;;13.20;99.90;;;;;;5085310;28;20035;-84
2021/12/31 08:15:44;;;;;;;8.27;3.40;;;13.30;99.90;;;;;;5081380;28;20556;-82
2021/12/31 08:18:10;;;;;;;5.70;3.22;;;13.20;99.90;;;;;;5081259;28;20100;-82
2021/12/31 08:20:37;;;;;;;5.35;2.95;;;13.30;99.90;;;;;;5078818;28;20028;-83
2021/12/31 08:23:10;;;;;;;3.53;2.30;;;13.30;99.90;;;;;;5076814;28;20063;-82
2021/12/31 08:25:40;;;;;;;6.10;2.72;;;13.30;99.90;;;;;;5080677;28;20477;-82
2021/12/31 08:28:06;;;;;;;4.57;2.80;;;13.30;99.90;;;;;;5079983;28;20100;-79
2021/12/31 08:30:32;;;;;;;4.63;2.40;;;13.30;99.90;;;;;;5080139;28;20448;-80
2021/12/31 08:32:57;;;;;;;7.97;2.60;;;13.20;99.90;;;;;;5082626;28;20036;-78
2021/12/31 08:35:24;;;;;;;3.97;2.10;;;13.20;99.90;;;;;;5077056;28;20028;-80
2021/12/31 08:37:50;;;;;;;7.68;3.15;;;13.30;99.90;;;;;;5077558;28;20099;-78
2021/12/31 08:40:16;;;;;;;6.38;2.63;;;13.30;99.90;;;;;;5076555;28;20113;-79
2021/12/31 08:42:42;;;;;;;3.95;2.80;;;13.20;99.90;;;;;;5079193;28;20095;-79
2021/12/31 08:45:08;;;;;;;4.78;2.97;;;13.30;99.90;;;;;;5083269;28;20036;-78
2021/12/31 08:47:34;;;;;;;4.07;3.65;;;13.40;99.90;;;;;;5084755;28;20419;-78
2021/12/31 08:50:00;;;;;;;4.28;3.03;;;13.40;99.90;;;;;;5081544;28;20115;-80
2021/12/31 08:52:26;;;;;;;2.88;2.47;;;13.40;99.90;;;;;;5085065;28;20051;-80
2021/12/31 08:54:51;;;;;;;7.45;3.28;;;13.20;99.90;;;;;;5082577;28;20032;-80
2021/12/31 08:57:17;;;;;;;6.53;2.92;;;13.30;99.90;;;;;;5083282;28;20073;-79
2021/12/31 08:59:44;;;;;;;6.55;2.55;;;13.20;99.90;;;;;;5085227;28;20597;-80
2021/12/31 09:02:11;;;;;;;3.55;2.63;;;13.30;99.90;;;;;;5088638;28;20476;-80
2021/12/31 09:04:36;;;;;;;4.82;2.33;;;13.30;99.90;;;;;;5083439;28;20035;-79
2021/12/31 09:07:02;;;;;;;6.85;3.03;;;13.40;99.90;;;;;;5090739;28;20028;-80
2021/12/31 09:09:28;;;;;;;7.28;2.45;;;13.40;99.90;;;;;;5085631;28;20045;-80
2021/12/31 09:11:55;;;;;;;5.47;2.45;;;13.40;99.90;;;;;;5080739;28;20150;-79
2021/12/31 09:14:21;;;;;;;6.10;2.78;;;13.40;99.90;;;;;;5088375;28;20028;-79
2021/12/31 09:16:47;;;;;;;3.85;2.50;;;13.40;99.90;;;;;;5089520;28;20349;-80
2021/12/31 09:19:13;;;;;;;3.58;2.55;;;13.40;99.90;;;;;;5079517;28;20043;-82
2021/12/31 09:21:40;;;;;;;4.47;2.53;;;13.40;99.90;;;;;;5086044;28;20035;-80
2021/12/31 09:24:06;;;;;;;3.13;2.83;;;13.40;99.90;;;;;;5082515;28;20071;-81
2021/12/31 09:26:32;;;;;;;6.70;2.47;;;13.40;99.90;;;;;;5087070;28;20426;-82
2021/12/31 09:28:57;;;;;;;7.38;2.20;;;13.40;99.90;;;;;;5082482;28;20028;-82
2021/12/31 09:31:23;;;;;;;3.85;2.40;;;13.40;99.90;;;;;;5084411;28;20032;-82
2021/12/31 09:33:49;;;;;;;4.60;2.78;;;13.40;99.90;;;;;;5082084;28;20107;-82
2021/12/31 09:36:15;;;;;;;4.55;2.38;;;13.50;99.90;;;;;;5082831;28;20433;-83
2021/12/31 09:38:41;;;;;;;3.88;2.15;;;13.60;99.90;;;;;;5094415;28;20024;-84
2021/12/31 09:41:07;;;;;;;5.47;2.40;;;13.50;99.90;;;;;;5083162;28;20386;-80
2021/12/31 09:43:33;;;;;;;6.13;2.30;;;13.50;99.90;;;;;;5082298;28;20020;-83
2021/12/31 09:45:58;;;;;;;4.15;1.92;;;13.50;99.90;;;;;;5084261;28;20016;-82
2021/12/31 09:48:24;;;;;;;3.63;2.13;;;13.50;99.90;;;;;;5084540;28;20055;-82
2021/12/31 09:50:56;;;;;;;3.30;2.05;;;13.60;99.90;;;;;;5089059;28;20114;-82
2021/12/31 09:53:24;;;;;;;3.78;1.90;;;13.60;99.90;;;;;;5078396;28;20483;-83
2021/12/31 09:55:53;;;;;;;4.25;2.05;;;13.60;99.90;;;;;;5082542;28;20078;-82
2021/12/31 09:58:21;;;;;;;2.88;2.00;;;13.60;99.90;;;;;;5081862;28;20085;-82
2021/12/31 10:00:49;;;;;;;5.82;2.17;;;13.70;99.90;;;;;;5081409;28;20024;-80
2021/12/31 10:03:25;;;;;;;5.18;1.90;;;13.70;99.90;;;;;;5080505;28;20468;-82
2021/12/31 10:05:52;;;;;;;4.20;2.22;;;13.70;99.90;;;;;;5084274;28;20070;-80
2021/12/31 10:08:22;;;;;;;4.15;1.83;;;13.70;99.90;;;;;;5081697;28;20021;-81
2021/12/31 10:11:22;;;;;;;5.00;2.15;;;13.70;99.90;;;;;;5079447;28;20385;-82
2021/12/31 10:13:59;;;;;;;4.00;2.00;;;13.70;99.90;;;;;;5082894;28;20131;-82
2021/12/31 10:16:28;;;;;;;2.95;1.70;;;13.70;99.90;;;;;;5086364;28;20046;-81
2021/12/31 10:19:14;;;;;;;5.30;2.20;;;13.70;99.90;;;;;;5082942;28;20024;-81
2021/12/31 10:21:51;;;;;;;2.78;1.85;;;13.70;99.90;;;;;;5092176;28;20418;-82
2021/12/31 10:24:25;;;;;;;4.65;2.00;;;13.70;99.90;;;;;;5080154;28;20441;-81
2021/12/31 10:26:58;;;;;;;3.17;1.98;;;13.80;99.90;;;;;;5081604;28;20552;-81
2021/12/31 10:29:25;;;;;;;4.15;2.28;;;13.80;99.90;;;;;;5082921;28;20052;-81
2021/12/31 10:31:52;;;;;;;3.72;1.80;;;13.80;99.90;;;;;;5082141;28;20034;-80
2021/12/31 10:34:32;;;;;;;3.53;1.90;;;13.90;99.90;;;;;;5083581;28;20116;-83
2021/12/31 10:37:20;;;;;;;3.25;1.73;;;13.90;99.90;;;;;;5078928;28;20024;-82
2021/12/31 10:39:59;;;;;;;3.38;1.63;;;13.90;99.90;;;;;;5081438;28;20477;-83
2021/12/31 10:42:30;;;;;;;4.95;2.03;;;13.90;99.90;;;;;;5079156;28;20526;-81
2021/12/31 10:44:57;;;;;;;9.27;2.45;;;13.90;99.90;;;;;;5084044;28;20025;-81
2021/12/31 10:47:32;;;;;;;2.00;1.80;;;14.00;99.90;;;;;;5083076;28;20064;-81
2021/12/31 10:50:00;;;;;;;3.55;1.75;;;14.00;99.90;;;;;;5081892;28;20044;-80
2021/12/31 10:52:36;;;;;;;3.25;2.10;;;14.00;99.90;;;;;;5080047;28;20503;-81
2021/12/31 10:55:24;;;;;;;2.78;2.13;;;14.00;99.90;;;;;;5077668;28;22102;-80
2021/12/31 10:57:52;;;;;;;4.00;2.20;;;14.10;99.90;;;;;;5079772;28;20053;-81
2021/12/31 11:00:19;;;;;;;4.05;2.38;;;14.10;99.90;;;;;;5085293;28;20032;-82
2021/12/31 11:02:46;;;;;;;6.10;2.50;;;14.10;99.90;;;;;;5081515;28;20020;-82
2021/12/31 11:05:13;;;;;;;2.58;1.75;;;14.20;99.90;;;;;;5077871;28;20523;-80
2021/12/31 11:07:40;;;;;;;2.78;2.20;;;14.20;99.90;;;;;;5083005;28;20157;-81
2021/12/31 11:10:08;;;;;;;4.45;1.63;;;14.30;99.90;;;;;;5081381;28;20031;-80
2021/12/31 11:12:34;;;;;;;2.08;1.58;;;14.40;99.90;;;;;;5083576;28;20020;-80
2021/12/31 11:15:02;;;;;;;3.15;1.95;;;14.40;99.90;;;;;;5082554;28;20150;-81
2021/12/31 11:17:27;;;;;;;4.43;2.15;;;14.50;99.90;;;;;;5084125;28;20020;-82
2021/12/31 11:19:53;;;;;;;2.45;1.75;;;14.60;99.90;;;;;;5083086;28;20473;-81
2021/12/31 11:22:24;;;;;;;3.83;1.60;;;14.60;99.90;;;;;;5080904;28;20025;-82
2021/12/31 11:24:49;;;;;;;4.00;1.90;;;14.60;99.90;;;;;;5078258;28;20031;-81
2021/12/31 11:27:27;;;;;;;4.07;1.63;;;14.60;99.90;;;;;;5078119;28;20028;-82
2021/12/31 11:29:53;;;;;;;2.67;1.88;;;14.60;99.90;;;;;;5083176;28;20354;-79
2021/12/31 11:32:51;;;;;;;2.72;1.90;;;14.60;99.90;;;;;;5087205;28;20047;-80
2021/12/31 11:35:40;;;;;;;3.05;2.15;;;14.60;99.90;;;;;;5082703;28;20036;-81
2021/12/31 11:38:12;;;;;;;4.45;2.03;;;14.70;99.90;;;;;;5081815;28;20495;-82
2021/12/31 11:40:49;;;;;;;3.77;1.83;;;14.70;99.90;;;;;;5085545;28;20020;-81
2021/12/31 11:43:22;;;;;;;4.38;1.85;;;14.70;99.90;;;;;;5083755;28;20293;-81
2021/12/31 11:48:48;;;;;;;2.58;2.00;;;14.70;99.90;;;;;;5076414;28;20020;-82
2021/12/31 11:51:26;;;;;;;7.47;2.53;;;14.70;99.90;;;;;;5085510;28;20377;-80
2021/12/31 11:54:00;;;;;;;4.55;2.20;;;14.60;99.90;;;;;;5080795;28;20042;-80
2021/12/31 11:56:45;;;;;;;5.28;2.50;;;14.70;99.90;;;;;;5080139;28;20469;-81
2021/12/31 11:59:13;;;;;;;3.28;1.75;;;14.60;99.90;;;;;;5080160;28;20036;-80
2021/12/31 12:01:55;;;;;;;2.05;1.55;;;14.60;99.90;;;;;;5081944;28;20024;-81
2021/12/31 12:04:22;;;;;;;2.87;2.10;;;14.60;99.90;;;;;;5079257;28;20047;-80
2021/12/31 12:06:52;;;;;;;4.53;2.05;;;14.60;99.90;;;;;;5078871;28;20711;-75
2021/12/31 12:09:17;;;;;;;5.57;2.33;;;14.70;99.90;;;;;;5080764;28;20032;-79
2021/12/31 12:12:03;;;;;;;2.53;1.50;;;14.70;99.90;;;;;;5078914;28;20032;-80
2021/12/31 12:14:40;;;;;;;3.42;2.15;;;14.70;99.90;;;;;;5081543;28;20471;-81
2021/12/31 12:17:08;;;;;;;3.35;1.90;;;14.70;99.90;;;;;;5083280;28;20017;-80
2021/12/31 12:19:51;;;;;;;5.50;1.88;;;14.80;99.90;;;;;;5081932;28;20028;-79
2021/12/31 12:22:31;;;;;;;4.07;2.00;;;14.80;99.90;;;;;;5086215;28;20081;-80
2021/12/31 12:25:18;;;;;;;3.80;2.03;;;14.80;99.90;;;;;;5084323;28;20034;-80
2021/12/31 12:27:47;;;;;;;4.60;1.90;;;14.90;99.90;;;;;;5084681;28;20032;-80
2021/12/31 12:30:15;;;;;;;2.80;2.10;;;14.90;99.90;;;;;;5087352;28;20131;-80
2021/12/31 12:35:26;;;;;;;4.80;2.00;;;14.90;99.90;;;;;;5086818;28;20048;-79
2021/12/31 12:38:01;;;;;;;2.67;1.80;;;14.90;99.90;;;;;;5087791;28;20107;-80
2021/12/31 12:40:58;;;;;;;3.60;1.90;;;14.90;99.90;;;;;;5086782;28;20024;-80
2021/12/31 12:43:25;;;;;;;3.33;1.90;;;14.90;99.90;;;;;;5084663;28;20032;-80
2021/12/31 12:45:56;;;;;;;3.30;1.55;;;14.80;99.90;;;;;;5082335;28;20043;-80
2021/12/31 12:48:32;;;;;;;1.80;1.70;;;14.80;99.90;;;;;;5089732;28;20095;-79
2021/12/31 12:50:58;;;;;;;2.47;1.85;;;14.90;99.90;;;;;;5088072;28;20036;-79
2021/12/31 12:53:26;;;;;;;2.97;1.58;;;15.00;99.90;;;;;;5087528;28;20019;-80
2021/12/31 12:56:21;;;;;;;3.22;1.83;;;14.90;99.90;;;;;;5083497;28;20028;-79
2021/12/31 12:58:53;;;;;;;3.15;2.03;;;14.90;99.90;;;;;;5075365;28;20049;-79